Time;durP1;ratioP1;P1;durP2;ratioP2;P2;SDS_P1;SDS_P2;PMS_P1;PMS_P2;Temp;Humidity;BMP_temperature;BMP_pressure;BME280_temperature;BME280_humidity;BME280_pressure;Samples;Min_cycle;Max_cycle;Signal;HPM_P1;HPM_P2
2022/06/25 00:00:04;;;;;;;14.52;4.55;;;;;;;22.05;68.26;98497.34;5081527;28;20049;-93
2022/06/25 00:02:45;;;;;;;24.48;5.13;;;;;;;22.03;68.33;98507.44;5078406;28;20041;-93
2022/06/25 00:08:42;;;;;;;16.65;4.70;;;;;;;22.02;68.42;98512.00;5143377;27;20397;-94
2022/06/25 00:24:43;;;;;;;14.73;4.30;;;;;;;21.93;69.10;98512.72;6074477;22;4564985;-95
2022/06/25 00:27:19;;;;;;;;;;;;;;;;;;;;;
2022/06/25 00:29:51;;;;;;;21.50;5.25;;;;;;;21.95;69.88;98510.75;6261103;23;20020;-94
2022/06/25 00:32:31;;;;;;;18.13;5.32;;;;;;;21.93;69.54;98516.28;6262360;23;20016;-93
2022/06/25 00:35:15;;;;;;;17.23;5.07;;;;;;;21.91;69.58;98518.25;6262490;22;20046;-94
2022/06/25 00:37:52;;;;;;;12.75;4.97;;;;;;;21.85;69.79;98512.44;6262103;22;20030;-93
2022/06/25 00:40:22;;;;;;;17.40;4.85;;;;;;;21.83;69.82;98498.16;6261797;22;20016;-94
2022/06/25 00:43:05;;;;;;;16.80;5.22;;;;;;;21.92;70.24;98524.53;6262292;22;20020;-92
2022/06/25 00:45:37;;;;;;;21.75;5.60;;;;;;;21.77;70.35;98504.91;6263024;22;20095;-92
2022/06/25 00:48:09;;;;;;;23.23;5.60;;;;;;;21.70;70.40;98509.94;6263000;22;20024;-93
2022/06/25 00:50:40;;;;;;;21.35;5.35;;;;;;;21.71;70.51;98510.81;6231134;23;20036;-93
2022/06/25 00:53:11;;;;;;;14.83;4.50;;;;;;;21.73;70.30;98503.44;6231530;23;20020;-95
2022/06/25 00:55:47;;;;;;;21.10;4.88;;;;;;;21.81;71.00;98516.38;6230405;23;20245;-95
2022/06/25 00:58:31;;;;;;;16.27;6.07;;;;;;;21.69;71.07;98485.72;6230513;23;20032;-93
2022/06/25 01:01:04;;;;;;;16.23;5.45;;;;;;;21.80;70.64;98503.84;6231092;23;20438;-93
2022/06/25 01:03:32;;;;;;;16.15;5.78;;;;;;;21.72;71.04;98515.25;6230931;23;20012;-94
2022/06/25 01:06:02;;;;;;;16.30;5.28;;;;;;;21.61;71.29;98510.66;6231699;23;20020;-93
2022/06/25 01:08:31;;;;;;;16.80;5.50;;;;;;;21.68;70.98;98513.75;6231407;23;20488;-93
2022/06/25 01:11:15;;;;;;;;;;;;;;;;;;;;;
2022/06/25 01:13:45;;;;;;;19.60;4.68;;;;;;;21.65;71.00;98506.72;6231404;23;20048;-94
2022/06/25 01:16:30;;;;;;;16.50;4.90;;;;;;;21.61;71.08;98497.13;6230966;23;20055;-93
2022/06/25 01:19:06;;;;;;;15.32;4.80;;;;;;;21.69;71.06;98512.78;6231402;23;20447;-93
2022/06/25 01:21:35;;;;;;;18.45;5.15;;;;;;;21.57;71.20;98508.31;6231266;23;20043;-93
2022/06/25 01:24:12;;;;;;;13.70;4.43;;;;;;;21.50;71.64;98513.31;6228078;23;20025;-94
2022/06/25 01:26:50;;;;;;;21.80;6.00;;;;;;;21.54;72.00;98528.34;6224985;23;20021;-95
2022/06/25 01:29:20;;;;;;;16.48;4.88;;;;;;;21.53;72.39;98524.78;6224309;23;20021;-94
2022/06/25 01:31:53;;;;;;;21.42;7.53;;;;;;;21.31;72.56;98503.84;6224522;23;20040;-94
2022/06/25 01:34:45;;;;;;;14.10;5.25;;;;;;;21.43;72.55;98529.16;6225113;23;20028;-93
2022/06/25 01:37:21;;;;;;;15.23;5.72;;;;;;;21.34;72.60;98519.84;6210530;23;20056;-92
2022/06/25 01:40:02;;;;;;;15.65;5.28;;;;;;;21.31;72.63;98514.66;6224814;23;20027;-95
2022/06/25 01:45:43;;;;;;;14.45;4.95;;;;;;;21.06;74.25;98517.50;5093671;27;20399;-93
2022/06/25 01:48:35;;;;;;;14.85;5.43;;;;;;;20.96;74.71;98521.84;5092243;27;20036;-92
2022/06/25 01:51:06;;;;;;;14.70;4.85;;;;;;;21.00;74.96;98550.38;5093654;27;20076;-94
2022/06/25 01:53:41;;;;;;;19.52;5.55;;;;;;;20.80;75.69;98522.13;5093666;27;20131;-94
2022/06/25 01:56:12;;;;;;;19.80;5.72;;;;;;;20.78;75.96;98526.78;5089750;27;20036;-92
2022/06/25 01:59:01;;;;;;;14.98;4.60;;;;;;;20.83;76.16;98530.00;5127689;27;20075;-92
2022/06/25 02:01:32;;;;;;;15.90;5.63;;;;;;;20.81;76.47;98553.56;5093590;27;20037;-91
2022/06/25 02:04:03;;;;;;;11.43;4.88;;;;;;;20.56;76.72;98522.88;5090031;27;20089;-90
2022/06/25 02:06:31;;;;;;;23.00;6.30;;;;;;;20.58;76.42;98541.69;5093073;27;20052;-91
2022/06/25 02:08:58;;;;;;;19.53;6.37;;;;;;;20.52;76.65;98535.75;5092701;27;20500;-91
2022/06/25 02:11:27;;;;;;;14.70;5.40;;;;;;;20.55;76.35;98539.19;5093104;27;20064;-93
2022/06/25 02:13:53;;;;;;;15.18;4.93;;;;;;;20.74;76.45;98573.91;5092877;27;20032;-92
2022/06/25 02:16:20;;;;;;;15.07;4.68;;;;;;;20.63;76.51;98540.41;5092995;27;20100;-94
2022/06/25 02:18:50;;;;;;;16.30;4.93;;;;;;;20.63;76.48;98556.63;5093577;27;20075;-90
2022/06/25 02:21:19;;;;;;;18.38;5.28;;;;;;;20.60;76.15;98551.44;5104882;27;20089;-91
2022/06/25 02:23:45;;;;;;;15.18;5.43;;;;;;;20.66;76.93;98563.63;5092523;28;20036;-90
2022/06/25 02:26:11;;;;;;;12.35;5.93;;;;;;;20.48;76.74;98539.63;5093207;27;20077;-91
2022/06/25 02:28:39;;;;;;;17.45;5.47;;;;;;;20.39;77.87;98555.66;5092146;27;20381;-92
2022/06/25 02:31:08;;;;;;;16.95;5.05;;;;;;;20.40;78.48;98571.72;5093003;27;20103;-92
2022/06/25 02:33:34;;;;;;;14.45;4.82;;;;;;;20.16;78.03;98546.44;5092547;28;20140;-91
2022/06/25 02:36:09;;;;;;;18.52;4.68;;;;;;;20.14;79.59;98572.69;5092975;27;20051;-93
2022/06/25 02:38:35;;;;;;;13.27;4.95;;;;;;;19.84;79.68;98550.41;5092553;27;20082;-92
2022/06/25 02:41:01;;;;;;;14.35;5.00;;;;;;;19.76;80.28;98565.41;5092918;27;20028;-92
2022/06/25 02:43:27;;;;;;;13.75;5.22;;;;;;;19.75;80.90;98559.13;5092689;28;20052;-93
2022/06/25 02:46:02;;;;;;;12.93;5.65;;;;;;;20.00;80.34;98582.59;5092327;27;20071;-93
2022/06/25 02:48:57;;;;;;;;;;;;;;;;;;;;;
2022/06/25 02:51:40;;;;;;;21.27;5.93;;;;;;;19.69;82.29;98559.50;5092484;27;20052;-92
2022/06/25 02:54:06;;;;;;;21.90;6.20;;;;;;;19.62;82.85;98558.19;5092324;27;20040;-93
2022/06/25 03:00:33;;;;;;;14.20;5.18;;;;;;;19.66;82.58;98570.50;5038651;28;20617;-94
2022/06/25 03:03:06;;;;;;;16.23;5.45;;;;;;;19.56;82.38;98569.38;5060544;28;20033;-93
2022/06/25 03:05:35;;;;;;;19.50;5.50;;;;;;;19.43;82.95;98572.03;5054573;28;20037;-92
2022/06/25 03:08:03;;;;;;;20.67;5.82;;;;;;;19.36;83.34;98573.41;5059979;28;20040;-92
2022/06/25 03:10:32;;;;;;;18.20;5.65;;;;;;;19.30;83.87;98585.50;5060091;28;20037;-92
2022/06/25 03:12:58;;;;;;;14.85;5.30;;;;;;;19.25;84.40;98574.97;5058964;28;20052;-94
2022/06/25 03:15:24;;;;;;;18.83;5.38;;;;;;;19.45;84.64;98618.66;5056133;28;20226;-94
2022/06/25 03:17:55;;;;;;;18.92;6.20;;;;;;;19.44;84.96;98612.38;5060432;28;20123;-95
2022/06/25 03:20:24;;;;;;;18.63;5.57;;;;;;;19.37;85.45;98597.59;5059694;28;20123;-91
2022/06/25 03:22:50;;;;;;;13.77;5.40;;;;;;;19.13;86.65;98567.72;5061295;28;20099;-93
2022/06/25 03:25:25;;;;;;;18.92;6.03;;;;;;;19.14;86.63;98555.09;5077061;28;20044;-94
2022/06/25 03:27:53;;;;;;;16.25;5.75;;;;;;;19.25;85.29;98572.28;5074922;28;20037;-93
2022/06/25 03:30:21;;;;;;;17.45;6.00;;;;;;;19.18;86.54;98588.97;5076704;28;20520;-94
2022/06/25 03:32:53;;;;;;;19.95;6.38;;;;;;;19.01;86.16;98563.13;5078327;27;20069;-94
2022/06/25 03:35:25;;;;;;;18.25;6.40;;;;;;;19.00;86.12;98578.44;5078729;28;20040;-93
2022/06/25 03:37:53;;;;;;;16.65;5.75;;;;;;;19.05;87.15;98600.53;5077859;27;20044;-91
2022/06/25 03:40:23;;;;;;;22.30;7.20;;;;;;;19.16;87.11;98629.50;5078600;28;20040;-92
2022/06/25 03:42:49;;;;;;;19.50;6.57;;;;;;;18.95;87.00;98588.63;5078013;28;20469;-94
2022/06/25 03:45:15;;;;;;;15.63;6.00;;;;;;;19.11;87.25;98609.22;5077708;27;20355;-93
2022/06/25 03:47:49;;;;;;;15.93;6.18;;;;;;;19.20;87.25;98627.47;5078080;28;20067;-93
2022/06/25 03:50:16;;;;;;;17.20;5.93;;;;;;;19.00;86.50;98596.44;5078570;27;20036;-90
2022/06/25 03:52:45;;;;;;;17.83;5.57;;;;;;;19.03;86.64;98610.56;5092844;27;20036;-95
2022/06/25 03:55:16;;;;;;;18.08;6.38;;;;;;;18.98;87.05;98592.97;5077712;27;20051;-94
2022/06/25 03:57:51;;;;;;;16.33;6.15;;;;;;;19.20;86.94;98612.16;5077748;27;20037;-95
2022/06/25 04:00:17;;;;;;;16.35;5.93;;;;;;;19.29;86.15;98629.56;5075838;28;20147;-96
2022/06/25 04:02:45;;;;;;;20.65;5.68;;;;;;;19.31;87.18;98640.28;5082044;27;20109;-94
2022/06/25 04:05:14;;;;;;;21.40;6.23;;;;;;;19.43;87.29;98640.34;5075324;28;20061;-93
2022/06/25 04:07:40;;;;;;;14.15;5.50;;;;;;;19.57;85.89;98631.34;5076902;27;20040;-91
2022/06/25 04:10:07;;;;;;;11.40;4.72;;;;;;;19.66;84.68;98622.63;5076720;28;20055;-92
2022/06/25 04:12:38;;;;;;;17.02;5.60;;;;;;;19.69;85.18;98616.16;5078300;27;20033;-92
2022/06/25 04:15:07;;;;;;;21.55;6.10;;;;;;;19.78;84.19;98612.88;5077790;27;20032;-93
2022/06/25 04:17:33;;;;;;;16.42;5.35;;;;;;;20.00;84.42;98635.72;5100231;27;20063;-93
2022/06/25 04:20:12;;;;;;;18.33;6.00;;;;;;;19.92;84.28;98628.13;5077744;27;20036;-93
2022/06/25 04:22:43;;;;;;;19.20;6.30;;;;;;;20.04;82.55;98623.75;5077240;27;20140;-93
2022/06/25 04:31:22;;;;;;;24.08;5.75;;;;;;;20.28;80.30;98629.31;5121721;27;20044;-93
2022/06/25 04:33:49;;;;;;;17.33;5.68;;;;;;;20.37;80.57;98631.34;5077549;27;20390;-92
2022/06/25 04:36:28;;;;;;;19.23;6.03;;;;;;;20.58;79.27;98663.25;5077438;27;20076;-92
2022/06/25 04:38:56;;;;;;;19.23;5.60;;;;;;;20.55;78.96;98669.72;5071205;28;20033;-91
2022/06/25 04:41:30;;;;;;;18.55;5.45;;;;;;;20.43;79.15;98652.53;5077153;28;20044;-93
2022/06/25 04:44:06;;;;;;;18.75;5.22;;;;;;;20.42;78.82;98640.00;5076590;27;20409;-92
2022/06/25 04:46:47;;;;;;;16.35;5.80;;;;;;;20.46;79.36;98630.72;5077772;27;20044;-92
2022/06/25 04:49:15;;;;;;;19.00;5.65;;;;;;;20.53;79.95;98625.75;5077683;28;20062;-92
2022/06/25 04:51:59;;;;;;;;;;;;;;;;;;;;;
2022/06/25 04:54:41;;;;;;;49.42;29.20;;;;;;;20.67;79.58;98625.69;5064820;28;20553;-94
2022/06/25 04:57:12;;;;;;;27.30;14.80;;;;;;;20.75;80.49;98630.53;5074007;27;20042;-94
2022/06/25 04:59:38;;;;;;;30.63;15.18;;;;;;;20.92;79.68;98640.13;5099623;27;20485;-92
2022/06/25 05:02:18;;;;;;;32.50;15.82;;;;;;;21.02;78.79;98649.31;5077173;27;20040;-90
2022/06/25 05:04:52;;;;;;;25.52;10.68;;;;;;;21.20;78.14;98663.34;5075893;28;20044;-93
2022/06/25 05:07:20;;;;;;;29.15;8.75;;;;;;;21.02;76.82;98624.13;5076492;27;20048;-94
2022/06/25 05:14:40;;;;;;;21.00;8.05;;;;;;;21.22;76.46;98655.13;4990645;28;20102;-93
2022/06/25 05:17:28;;;;;;;19.65;8.70;;;;;;;21.00;77.00;98624.22;4994728;28;20050;-93
2022/06/25 05:19:56;;;;;;;19.30;8.73;;;;;;;21.13;76.56;98659.38;5059165;28;20076;-92
2022/06/25 05:22:23;;;;;;;22.52;8.43;;;;;;;21.12;76.71;98654.91;5058440;28;20103;-93
2022/06/25 05:24:49;;;;;;;20.23;8.23;;;;;;;21.12;75.74;98660.31;5058434;28;20045;-92
2022/06/25 05:27:18;;;;;;;18.90;8.57;;;;;;;21.12;76.53;98642.28;5057458;28;20047;-94
2022/06/25 05:29:52;;;;;;;17.23;7.93;;;;;;;21.20;77.50;98646.25;5057917;28;20055;-94
2022/06/25 05:32:20;;;;;;;23.60;8.55;;;;;;;21.43;76.31;98663.56;5057761;28;20052;-93
2022/06/25 05:35:11;;;;;;;22.10;9.60;;;;;;;21.70;75.54;98679.59;5057650;28;20528;-95
2022/06/25 05:37:55;;;;;;;18.95;9.07;;;;;;;21.71;74.37;98640.72;5066424;28;20052;-91
2022/06/25 05:40:30;;;;;;;19.95;8.00;;;;;;;21.95;74.04;98641.56;5120082;27;20044;-93
2022/06/25 05:43:01;;;;;;;21.05;8.68;;;;;;;22.10;73.09;98647.66;5076815;28;20028;-92
2022/06/25 05:45:27;;;;;;;23.33;8.80;;;;;;;22.33;70.93;98645.91;5076620;27;20049;-92
2022/06/25 05:47:53;;;;;;;22.58;9.73;;;;;;;22.39;70.36;98633.75;5075848;28;20040;-92
2022/06/25 05:50:32;;;;;;;23.63;9.88;;;;;;;22.62;69.81;98653.66;5076180;27;20056;-93
2022/06/25 05:53:08;;;;;;;32.63;9.98;;;;;;;22.59;69.14;98628.63;5076259;27;20036;-94
2022/06/25 05:55:37;;;;;;;20.23;9.45;;;;;;;22.76;68.53;98645.25;5076757;28;20044;-92
2022/06/25 05:58:22;;;;;;;25.67;9.50;;;;;;;22.87;68.68;98651.69;5076668;27;20041;-91
2022/06/25 06:00:55;;;;;;;23.98;9.65;;;;;;;23.12;68.00;98670.47;5075871;28;20048;-92
2022/06/25 06:03:21;;;;;;;28.92;11.70;;;;;;;22.69;69.13;98633.19;5074780;27;20447;-92
2022/06/25 06:05:51;;;;;;;20.85;7.80;;;;;;;22.53;70.16;98638.06;5071045;28;20040;-91
2022/06/25 06:08:20;;;;;;;22.95;8.48;;;;;;;22.13;71.55;98622.19;5073639;27;20101;-92
2022/06/25 06:10:49;;;;;;;19.38;8.23;;;;;;;22.32;72.70;98652.31;5084798;27;20047;-92
2022/06/25 06:13:18;;;;;;;20.25;7.45;;;;;;;22.22;73.09;98656.72;5075708;27;20044;-92
2022/06/25 06:15:54;;;;;;;16.20;5.75;;;;;;;22.20;72.78;98617.16;5070472;27;20033;-93
2022/06/25 06:18:20;;;;;;;15.98;5.82;;;;;;;22.32;71.47;98622.53;5072776;28;20033;-91
2022/06/25 06:20:50;;;;;;;17.25;5.88;;;;;;;22.30;72.28;98631.75;5075783;28;20120;-92
2022/06/25 06:23:48;;;;;;;15.85;6.03;;;;;;;22.47;70.18;98611.50;5081467;27;20044;-92
2022/06/25 06:26:25;;;;;;;18.38;5.63;;;;;;;22.48;70.82;98614.06;5074226;27;20053;-91
2022/06/25 06:29:01;;;;;;;16.95;5.40;;;;;;;22.65;69.73;98630.84;5069178;28;20036;-93
2022/06/25 06:31:34;;;;;;;15.80;6.13;;;;;;;23.26;68.83;98647.66;5077822;27;20037;-92
2022/06/25 06:34:02;;;;;;;13.48;6.45;;;;;;;24.26;64.90;98625.78;5069523;28;20036;-93
2022/06/25 06:36:31;;;;;;;25.60;9.60;;;;;;;24.96;61.27;98634.22;5074318;27;20041;-92
2022/06/25 06:39:01;;;;;;;27.48;10.15;;;;;;;24.40;62.11;98649.06;5074042;27;20037;-92
2022/06/25 06:41:27;;;;;;;22.02;8.75;;;;;;;24.49;61.27;98661.88;5073196;28;20055;-91
2022/06/25 06:43:54;;;;;;;19.77;8.48;;;;;;;24.90;60.11;98637.53;5070922;28;20067;-92
2022/06/25 06:46:20;;;;;;;17.60;6.00;;;;;;;25.44;57.33;98654.50;5073763;27;20049;-93
2022/06/25 06:48:45;;;;;;;10.95;4.68;;;;;;;25.57;58.14;98653.28;5073709;28;20041;-92
2022/06/25 06:51:14;;;;;;;19.50;4.93;;;;;;;25.46;58.87;98642.50;5073149;27;20049;-92
2022/06/25 06:53:40;;;;;;;12.38;4.70;;;;;;;25.33;57.51;98639.13;5073356;27;20123;-91
2022/06/25 06:56:10;;;;;;;13.20;5.07;;;;;;;24.82;58.60;98645.50;5073278;28;20060;-92
2022/06/25 06:58:39;;;;;;;12.23;5.50;;;;;;;25.34;58.20;98646.31;5073127;27;20053;-94
2022/06/25 07:01:08;;;;;;;16.75;4.88;;;;;;;25.56;57.76;98664.28;5073189;27;20124;-94
2022/06/25 07:03:34;;;;;;;17.58;5.30;;;;;;;25.77;54.26;98661.47;5060968;28;20072;-92
2022/06/25 07:06:13;;;;;;;;;;;;;;;;;;;;;
2022/06/25 07:08:51;;;;;;;22.55;6.05;;;;;;;25.51;54.35;98650.25;5072100;28;20493;-93
2022/06/25 07:11:28;;;;;;;;;;;;;;;25.72;53.85;98672.81;5066216;28;20052;-91
2022/06/25 07:14:34;;;;;;;20.10;4.93;;;;;;;25.41;53.09;98639.31;5076478;27;19927;-95
2022/06/25 07:17:03;;;;;;;19.50;5.22;;;;;;;25.66;53.91;98654.28;5073778;27;20048;-91
2022/06/25 07:19:35;;;;;;;14.48;4.55;;;;;;;25.78;52.85;98652.28;5075303;27;20121;-92
2022/06/25 07:22:02;;;;;;;15.82;5.13;;;;;;;25.65;53.00;98629.91;5073713;27;20044;-92
2022/06/25 07:24:27;;;;;;;19.73;6.03;;;;;;;25.43;53.32;98661.81;5079442;27;20064;-91
2022/06/25 07:26:58;;;;;;;19.85;5.80;;;;;;;25.04;55.15;98653.47;5074582;28;20140;-92
2022/06/25 07:29:24;;;;;;;19.88;5.93;;;;;;;24.94;55.56;98653.44;5073707;28;20114;-94
2022/06/25 07:31:51;;;;;;;13.52;5.72;;;;;;;24.84;56.09;98640.78;5073365;27;20045;-92
2022/06/25 07:34:17;;;;;;;14.65;5.55;;;;;;;25.14;55.79;98661.69;5072782;28;20457;-90
2022/06/25 07:36:45;;;;;;;19.30;5.38;;;;;;;25.30;55.08;98678.38;5113893;27;20044;-92
2022/06/25 07:39:11;;;;;;;20.25;5.60;;;;;;;25.18;54.86;98655.81;5074067;27;20429;-91
2022/06/25 07:41:48;;;;;;;18.60;5.85;;;;;;;25.06;55.54;98689.56;5074128;28;20097;-92
2022/06/25 07:44:23;;;;;;;18.30;6.05;;;;;;;25.17;56.64;98700.34;5072395;28;20063;-92
2022/06/25 07:46:49;;;;;;;17.63;6.20;;;;;;;25.71;54.97;98672.94;5071890;27;20066;-91
2022/06/25 07:49:15;;;;;;;25.40;7.05;;;;;;;26.41;52.87;98687.34;5073703;28;20052;-94
2022/06/25 08:05:07;;;;;;;21.75;6.28;;;;;;;26.37;51.94;98655.94;6258232;22;1467041;-91
2022/06/25 08:07:43;;;;;;;21.00;6.30;;;;;;;26.70;52.11;98632.81;6317070;22;20449;-94
2022/06/25 08:10:09;;;;;;;21.10;5.97;;;;;;;26.99;50.62;98630.00;6318120;22;20019;-91
2022/06/25 08:12:37;;;;;;;23.85;6.63;;;;;;;27.10;50.04;98631.69;6317311;22;20095;-90
2022/06/25 08:15:06;;;;;;;21.40;5.75;;;;;;;27.52;50.43;98669.47;6318119;22;20023;-95
2022/06/25 08:17:41;;;;;;;14.00;5.53;;;;;;;27.61;49.75;98638.50;6317052;22;20015;-92
2022/06/25 08:20:09;;;;;;;22.27;5.65;;;;;;;27.74;49.06;98626.34;6316252;22;20094;-91
2022/06/25 08:22:45;;;;;;;17.05;5.80;;;;;;;27.68;48.40;98635.16;6317387;22;20093;-92
2022/06/25 08:25:14;;;;;;;20.40;6.28;;;;;;;27.66;49.39;98655.28;6317550;22;20046;-93
2022/06/25 08:27:53;;;;;;;19.85;5.90;;;;;;;28.00;49.24;98656.53;6317996;22;20471;-91
2022/06/25 08:30:22;;;;;;;19.25;5.72;;;;;;;28.19;47.59;98630.91;6319294;22;20019;-93
2022/06/25 08:32:50;;;;;;;19.42;6.03;;;;;;;28.18;47.75;98626.47;6319137;22;20011;-95
2022/06/25 08:35:22;;;;;;;16.50;5.80;;;;;;;27.96;47.24;98612.25;6316930;22;20062;-92
2022/06/25 08:37:49;;;;;;;17.58;5.30;;;;;;;27.87;47.54;98646.00;6318708;22;20379;-93
2022/06/25 08:40:20;;;;;;;13.10;5.63;;;;;;;27.97;47.41;98611.22;6316257;22;20509;-93
2022/06/25 08:42:53;;;;;;;16.83;5.45;;;;;;;27.12;48.92;98610.56;6318486;22;20017;-93
2022/06/25 08:45:20;;;;;;;17.17;5.30;;;;;;;27.70;48.43;98639.44;6317178;22;20065;-90
2022/06/25 08:47:48;;;;;;;20.38;6.20;;;;;;;28.19;47.52;98636.38;6317353;22;20328;-95
2022/06/25 08:50:22;;;;;;;15.82;4.90;;;;;;;28.22;46.08;98601.38;6316619;22;20015;-94
2022/06/25 08:53:00;;;;;;;17.95;5.72;;;;;;;26.93;49.89;98606.03;6316188;22;20383;-91
2022/06/25 08:55:43;;;;;;;17.75;5.60;;;;;;;27.47;50.38;98603.50;6316579;22;20015;-92
2022/06/25 08:58:17;;;;;;;21.77;6.10;;;;;;;28.07;48.61;98619.38;6317208;22;20015;-93
2022/06/25 09:01:16;;;;;;;17.40;5.70;;;;;;;27.88;48.68;98611.31;6319441;22;20030;-90
2022/06/25 09:03:48;;;;;;;15.52;5.97;;;;;;;28.24;47.41;98634.03;6317296;22;20044;-92
2022/06/25 09:06:29;;;;;;;15.18;5.25;;;;;;;27.64;49.05;98618.22;6311253;22;20034;-94
2022/06/25 09:09:15;;;;;;;17.63;5.63;;;;;;;28.42;47.80;98632.13;6311452;22;20464;-92
2022/06/25 09:11:57;;;;;;;19.15;5.28;;;;;;;28.79;46.95;98603.69;6310363;22;20482;-92
2022/06/25 09:14:30;;;;;;;15.25;5.55;;;;;;;28.90;45.77;98599.81;6309618;22;20012;-93
2022/06/25 09:17:13;;;;;;;15.98;5.55;;;;;;;29.39;46.03;98607.47;6310740;22;20015;-94
2022/06/25 09:19:48;;;;;;;11.48;5.05;;;;;;;29.80;44.89;98630.41;6310204;22;20376;-90
2022/06/25 09:22:27;;;;;;;16.50;5.25;;;;;;;29.79;44.65;98604.00;6310361;22;20027;-92
2022/06/25 09:25:25;;;;;;;13.60;5.32;;;;;;;29.72;43.93;98616.66;6310451;22;20025;-94
2022/06/25 09:27:59;;;;;;;11.15;5.28;;;;;;;28.89;45.18;98595.38;6311764;22;20178;-94
2022/06/25 09:30:37;;;;;;;;;;;;;;;;;;;;;
2022/06/25 09:33:30;;;;;;;15.20;5.95;;;;;;;29.28;44.78;98614.09;6312555;22;20376;-92
2022/06/25 09:36:05;;;;;;;17.73;5.18;;;;;;;29.37;44.09;98618.56;6313349;22;20022;-93
2022/06/25 09:38:46;;;;;;;16.25;5.28;;;;;;;29.35;44.58;98584.16;6313317;22;20019;-92
2022/06/25 09:41:17;;;;;;;14.77;5.07;;;;;;;29.57;45.04;98599.97;6311611;22;20023;-94
2022/06/25 09:43:52;;;;;;;18.45;6.28;;;;;;;29.61;44.49;98603.25;6313268;22;20015;-94
2022/06/25 09:46:22;;;;;;;10.25;4.65;;;;;;;29.06;46.00;98588.97;6312934;22;20023;-92
2022/06/25 09:48:51;;;;;;;12.95;5.25;;;;;;;29.06;44.11;98577.16;6312920;22;20031;-93
2022/06/25 09:51:28;;;;;;;12.63;5.07;;;;;;;29.45;44.25;98573.91;6312559;22;20026;-91
2022/06/25 09:54:03;;;;;;;13.47;5.03;;;;;;;29.39;44.27;98572.69;6311638;22;20023;-92
2022/06/25 09:56:32;;;;;;;15.77;5.68;;;;;;;28.98;44.58;98566.19;6313050;22;20250;-92
2022/06/25 09:59:02;;;;;;;10.73;4.53;;;;;;;29.50;45.08;98593.47;6311909;22;20468;-91
2022/06/25 10:01:30;;;;;;;13.98;5.25;;;;;;;29.91;43.61;98610.03;6281359;22;20023;-93
2022/06/25 10:04:06;;;;;;;13.47;5.10;;;;;;;29.87;42.90;98565.63;6280862;22;20073;-94
2022/06/25 10:06:39;;;;;;;14.73;5.20;;;;;;;30.19;42.99;98574.03;6278646;22;20016;-92
2022/06/25 10:09:13;;;;;;;18.02;5.53;;;;;;;28.54;45.78;98563.50;6282375;22;20066;-94
2022/06/25 10:11:39;;;;;;;12.75;5.25;;;;;;;29.37;45.18;98582.97;6280469;22;20459;-94
2022/06/25 10:14:11;;;;;;;16.88;5.78;;;;;;;29.66;43.87;98538.69;6279806;22;20015;-91
2022/06/25 10:16:40;;;;;;;10.68;4.72;;;;;;;29.72;42.93;98537.19;6281275;22;20069;-91
2022/06/25 10:19:18;;;;;;;16.40;5.82;;;;;;;29.55;42.41;98530.78;6280397;22;20019;-93
2022/06/25 10:21:48;;;;;;;12.52;4.82;;;;;;;30.06;42.78;98528.81;6279938;22;20045;-92
2022/06/25 10:24:22;;;;;;;15.15;5.38;;;;;;;30.54;42.44;98533.59;6282163;22;20020;-91
2022/06/25 10:26:56;;;;;;;16.75;6.00;;;;;;;30.22;42.60;98552.63;6282315;22;20019;-92
2022/06/25 10:29:28;;;;;;;11.10;5.07;;;;;;;29.92;42.37;98534.97;6282992;22;20012;-95
2022/06/25 10:32:23;;;;;;;14.30;5.28;;;;;;;30.21;42.55;98545.44;6282523;22;20047;-91
2022/06/25 10:34:53;;;;;;;13.20;4.90;;;;;;;30.32;41.36;98529.66;6280850;22;20020;-94
2022/06/25 10:37:22;;;;;;;16.15;4.70;;;;;;;30.16;42.32;98560.69;6280845;22;20075;-93
2022/06/25 10:40:10;;;;;;;11.55;5.25;;;;;;;29.87;41.99;98532.75;6281826;22;20026;-92
2022/06/25 10:43:00;;;;;;;8.95;4.60;;;;;;;29.80;41.65;98523.50;6281849;22;20015;-91
2022/06/25 10:45:46;;;;;;;11.75;5.07;;;;;;;30.26;41.82;98558.63;6279657;22;20022;-94
2022/06/25 10:48:13;;;;;;;14.63;5.38;;;;;;;30.25;41.20;98526.72;6281779;22;20015;-94
2022/06/25 10:50:46;;;;;;;19.50;5.38;;;;;;;30.54;41.67;98536.34;6281288;22;20023;-94
2022/06/25 10:53:25;;;;;;;10.55;5.07;;;;;;;30.97;39.93;98525.91;6281322;22;20018;-91
2022/06/25 10:56:12;;;;;;;9.15;4.78;;;;;;;31.14;38.89;98508.31;6282352;22;20015;-93
2022/06/25 10:58:43;;;;;;;13.50;5.13;;;;;;;31.10;38.77;98539.97;6281976;22;20326;-91
2022/06/25 11:01:24;;;;;;;11.98;5.15;;;;;;;30.05;40.35;98512.53;6281177;22;20024;-93
2022/06/25 11:04:01;;;;;;;12.98;5.35;;;;;;;30.18;40.28;98534.78;6282174;22;20059;-94
2022/06/25 11:09:20;;;;;;;11.32;5.18;;;;;;;29.99;41.15;98521.44;6279992;22;20019;-93
2022/06/25 11:11:51;;;;;;;15.13;5.32;;;;;;;29.71;40.13;98510.78;6282427;22;20043;-92
2022/06/25 11:14:22;;;;;;;14.20;4.85;;;;;;;29.13;41.89;98518.03;6281773;22;20329;-94
2022/06/25 11:17:13;;;;;;;11.70;5.78;;;;;;;29.14;42.05;98538.88;6280562;22;20023;-95
2022/06/25 11:19:56;;;;;;;;;;;;;;;;;;;;;
2022/06/25 11:22:32;;;;;;;12.35;5.30;;;;;;;28.93;42.18;98509.19;6283886;22;20016;-95
2022/06/25 11:38:50;;;;;;;10.73;4.63;;;;;;;31.31;37.57;98487.13;6069008;22;3606924;-93
2022/06/25 11:41:26;;;;;;;12.57;4.63;;;;;;;31.25;37.05;98496.09;6224937;23;20044;-93
2022/06/25 11:44:17;;;;;;;12.57;4.40;;;;;;;31.63;35.89;98475.09;6222773;23;20103;-96
2022/06/25 11:47:21;;;;;;;11.95;4.68;;;;;;;31.89;35.08;98501.34;6224026;23;20068;-94
2022/06/25 11:50:18;;;;;;;;;;;;;;;31.80;36.42;98500.56;6224597;23;20024;-92
2022/06/25 11:52:49;;;;;;;14.07;5.20;;;;;;;31.79;35.59;98476.84;6220610;23;19916;-94
2022/06/25 11:55:21;;;;;;;11.52;4.25;;;;;;;32.17;35.95;98474.16;6220516;23;20028;-91
2022/06/25 11:57:47;;;;;;;11.13;4.68;;;;;;;32.49;35.33;98496.88;6219663;22;20091;-93
2022/06/25 12:00:17;;;;;;;10.43;4.03;;;;;;;32.52;35.03;98460.69;6220852;23;20390;-92
2022/06/25 12:02:46;;;;;;;15.18;4.60;;;;;;;32.74;33.87;98487.28;6221994;23;20085;-89
2022/06/25 12:05:32;;;;;;;12.65;4.10;;;;;;;32.86;33.67;98484.94;6219337;22;20020;-92
2022/06/25 12:07:58;;;;;;;9.98;4.40;;;;;;;32.51;34.43;98451.59;6221311;22;20103;-93
2022/06/25 12:10:32;;;;;;;14.07;4.35;;;;;;;32.48;34.90;98462.13;6219977;23;20027;-94
2022/06/25 12:13:10;;;;;;;15.00;5.20;;;;;;;32.02;35.04;98489.75;6219452;23;20016;-93
2022/06/25 12:15:50;;;;;;;10.60;4.00;;;;;;;31.70;36.53;98461.47;6219465;23;20019;-92
2022/06/25 12:18:42;;;;;;;11.07;3.95;;;;;;;31.76;35.07;98481.88;6219432;23;20021;-95
2022/06/25 12:21:22;;;;;;;10.88;4.40;;;;;;;31.76;35.15;98449.72;6219519;23;20054;-93
2022/06/25 12:23:55;;;;;;;12.93;4.57;;;;;;;32.50;35.50;98463.63;6219383;23;20501;-91
2022/06/25 12:26:46;;;;;;;;;;;;;;;;;;;;;
2022/06/25 12:29:46;;;;;;;9.27;4.05;;;;;;;31.48;35.46;98480.50;6196342;23;20439;-94
2022/06/25 12:32:12;;;;;;;10.32;4.10;;;;;;;31.41;36.92;98464.94;6220084;23;20025;-92
2022/06/25 12:34:48;;;;;;;9.77;4.30;;;;;;;31.62;34.89;98462.41;6220669;23;20021;-92
2022/06/25 12:37:27;;;;;;;10.88;4.20;;;;;;;31.70;34.74;98459.56;6219756;23;20025;-91
2022/06/25 12:39:53;;;;;;;13.73;4.57;;;;;;;31.90;35.07;98462.69;6216353;22;20020;-91
2022/06/25 12:42:20;;;;;;;10.50;4.57;;;;;;;31.90;34.20;98439.81;6216273;23;20021;-90
2022/06/25 12:44:46;;;;;;;10.82;4.25;;;;;;;32.24;35.12;98435.72;6215921;23;20016;-90
2022/06/25 12:47:13;;;;;;;9.82;4.80;;;;;;;32.62;34.03;98439.28;6215409;23;20066;-92
2022/06/25 12:49:41;;;;;;;8.77;4.30;;;;;;;32.76;33.80;98434.78;6214266;23;20016;-91
2022/06/25 12:52:17;;;;;;;14.00;5.10;;;;;;;31.96;35.71;98438.22;6216999;23;20161;-91
2022/06/25 12:54:45;;;;;;;;;;;;;;;31.83;35.61;98472.69;6216854;23;20020;-93
2022/06/25 12:57:26;;;;;;;8.63;4.15;;;;;;;32.27;34.42;98429.84;6216725;23;19912;-90
2022/06/25 12:59:53;;;;;;;13.80;4.45;;;;;;;32.43;33.65;98445.34;6213719;22;20024;-92
2022/06/25 13:02:25;;;;;;;12.45;4.13;;;;;;;32.72;34.02;98444.47;6215497;22;20021;-93
2022/06/25 13:05:10;;;;;;;15.75;4.78;;;;;;;32.87;32.97;98458.25;6215763;23;20020;-95
2022/06/25 13:07:47;;;;;;;11.98;4.40;;;;;;;32.12;33.65;98441.69;6216286;23;20091;-91
2022/06/25 13:10:39;;;;;;;13.70;4.45;;;;;;;31.76;35.31;98435.97;6217004;23;20040;-92